createdAt,value
2022-12-20T00:00:15.236Z,4.43
2022-12-20T00:04:19.429Z,4.50
2022-12-20T00:08:22.381Z,4.50
2022-12-20T00:12:25.783Z,5.30
2022-12-20T00:16:29.879Z,4.80
2022-12-20T00:20:34.052Z,4.30
2022-12-20T00:24:37.144Z,4.97
2022-12-20T00:28:40.907Z,4.57
2022-12-20T00:32:44.233Z,5.20
2022-12-20T00:36:48.473Z,5.00
2022-12-20T00:41:01.021Z,4.40
2022-12-20T00:45:04.361Z,4.70
2022-12-20T00:49:07.484Z,4.53
2022-12-20T00:53:11.681Z,4.60
2022-12-20T00:57:14.526Z,4.40
2022-12-20T01:01:20.918Z,4.13
2022-12-20T01:05:24.518Z,4.27
2022-12-20T01:09:28.691Z,4.07
2022-12-20T01:13:32.402Z,4.10
2022-12-20T01:17:35.310Z,4.10
2022-12-20T01:21:39.717Z,4.00
2022-12-20T01:25:43.809Z,4.37
2022-12-20T01:29:46.654Z,3.90
2022-12-20T01:33:51.403Z,4.40
2022-12-20T01:37:54.389Z,4.13
2022-12-20T01:41:58.573Z,3.80
2022-12-20T01:46:01.504Z,4.50
2022-12-20T01:50:06.415Z,4.00
2022-12-20T01:54:15.196Z,3.60
2022-12-20T01:58:21.093Z,4.20
2022-12-20T02:02:24.935Z,3.57
2022-12-20T02:06:28.821Z,4.30
2022-12-20T02:10:47.106Z,4.07
2022-12-20T02:15:05.404Z,3.90
2022-12-20T02:19:17.350Z,3.43
2022-12-20T02:23:59.733Z,3.83
2022-12-20T02:28:08.879Z,3.70
2022-12-20T02:32:21.083Z,3.60
2022-12-20T02:36:25.439Z,3.50
2022-12-20T02:40:33.513Z,3.87
2022-12-20T02:44:55.964Z,3.53
2022-12-20T02:49:04.390Z,3.87
2022-12-20T02:53:09.032Z,3.83
2022-12-20T02:57:20.687Z,3.30
2022-12-20T03:01:29.089Z,3.87
2022-12-20T03:05:36.596Z,3.87
2022-12-20T03:09:41.150Z,4.00
2022-12-20T03:13:44.030Z,3.67
2022-12-20T03:17:46.946Z,3.50
2022-12-20T03:21:51.224Z,4.53
2022-12-20T03:25:54.085Z,4.23
2022-12-20T03:30:15.713Z,4.50
2022-12-20T03:34:19.154Z,4.70
2022-12-20T03:38:23.442Z,4.90
2022-12-20T03:42:26.202Z,4.73
2022-12-20T03:46:29.324Z,4.73
2022-12-20T03:50:32.686Z,5.00
2022-12-20T03:54:38.576Z,4.50
2022-12-20T03:58:48.550Z,4.90
2022-12-20T04:02:52.528Z,4.93
2022-12-20T04:06:55.533Z,4.70
2022-12-20T04:11:18.207Z,5.07
2022-12-20T04:15:26.589Z,5.03
2022-12-20T04:19:29.980Z,4.97
2022-12-20T04:23:33.429Z,5.10
2022-12-20T04:27:37.942Z,5.37
2022-12-20T04:31:43.394Z,5.47
2022-12-20T04:35:46.778Z,5.87
2022-12-20T04:39:49.947Z,6.17
2022-12-20T04:43:59.219Z,6.07
2022-12-20T04:48:37.492Z,5.83
2022-12-20T04:52:50.661Z,7.07
2022-12-20T04:56:54.218Z,7.03
2022-12-20T05:01:00.493Z,7.53
2022-12-20T05:05:10.439Z,6.93
2022-12-20T05:09:19.836Z,6.47
2022-12-20T05:13:22.821Z,6.70
2022-12-20T05:17:27.635Z,6.27
2022-12-20T05:21:48.117Z,7.10
2022-12-20T05:26:09.623Z,6.73
2022-12-20T05:30:15.994Z,6.37
2022-12-20T05:34:21.383Z,6.27
2022-12-20T05:38:29.801Z,5.80
2022-12-20T05:42:33.243Z,6.73
2022-12-20T05:46:36.227Z,6.70
2022-12-20T05:50:46.141Z,6.33
2022-12-20T05:55:02.130Z,6.53
2022-12-20T05:59:05.439Z,5.70
2022-12-20T06:03:09.404Z,6.37
2022-12-20T06:07:14.455Z,6.70
2022-12-20T06:11:23.097Z,5.43
2022-12-20T06:15:35.918Z,6.33
2022-12-20T06:19:40.096Z,5.73
2022-12-20T06:23:46.466Z,5.27
2022-12-20T06:27:50.352Z,5.97
2022-12-20T06:31:54.224Z,5.63
2022-12-20T06:35:57.106Z,5.57
2022-12-20T06:40:01.368Z,5.37
2022-12-20T06:44:05.285Z,5.20
2022-12-20T06:48:08.766Z,5.63
2022-12-20T06:52:11.857Z,5.57
2022-12-20T06:56:27.991Z,6.07
2022-12-20T07:00:31.094Z,5.60
2022-12-20T07:04:34.297Z,5.00
2022-12-20T07:08:37.093Z,5.77
2022-12-20T07:12:47.423Z,6.10
2022-12-20T07:16:51.226Z,5.53
2022-12-20T07:20:54.117Z,5.77
2022-12-20T07:24:56.910Z,5.73
2022-12-20T07:29:01.066Z,6.87
2022-12-20T07:33:03.915Z,7.17
2022-12-20T07:37:08.541Z,7.03
2022-12-20T07:41:13.264Z,7.27
2022-12-20T07:45:17.648Z,6.20
2022-12-20T07:49:20.476Z,6.43
2022-12-20T07:53:25.605Z,6.00
2022-12-20T07:57:33.245Z,5.33
2022-12-20T08:01:37.648Z,4.93
2022-12-20T08:05:43.347Z,5.10
2022-12-20T08:09:47.664Z,4.50
2022-12-20T08:13:57.286Z,4.80
2022-12-20T08:18:02.126Z,4.60
2022-12-20T08:22:05.168Z,4.77
2022-12-20T08:26:08.310Z,4.30
2022-12-20T08:30:12.044Z,4.43
2022-12-20T08:34:16.252Z,4.40
2022-12-20T08:38:19.054Z,4.10
2022-12-20T08:42:22.913Z,4.50
2022-12-20T08:46:25.827Z,4.00
2022-12-20T08:50:30.217Z,3.80
2022-12-20T08:54:32.983Z,3.90
2022-12-20T08:58:35.902Z,4.20
2022-12-20T09:02:39.147Z,4.10
2022-12-20T09:06:43.370Z,3.50
2022-12-20T09:10:46.143Z,4.03
2022-12-20T09:14:48.904Z,3.67
2022-12-20T09:18:52.013Z,3.87
2022-12-20T09:22:56.129Z,3.70
2022-12-20T09:26:58.906Z,4.00
2022-12-20T09:31:02.317Z,4.13
2022-12-20T09:35:05.508Z,3.80
2022-12-20T09:39:09.900Z,3.67
2022-12-20T09:43:13.695Z,3.73
2022-12-20T09:47:21.207Z,3.50
2022-12-20T09:51:45.255Z,3.30
2022-12-20T09:55:54.559Z,3.60
2022-12-20T09:59:58.143Z,3.37
2022-12-20T10:04:06.791Z,3.97
2022-12-20T10:08:17.808Z,3.57
2022-12-20T10:12:34.263Z,4.33
2022-12-20T10:16:43.075Z,4.30
2022-12-20T10:20:56.861Z,4.20
2022-12-20T10:25:02.941Z,4.17
2022-12-20T10:29:07.625Z,4.20
2022-12-20T10:33:18.174Z,4.00
2022-12-20T10:37:20.891Z,4.20
2022-12-20T10:41:25.407Z,4.60
2022-12-20T10:45:36.477Z,4.80
2022-12-20T10:49:41.183Z,4.70
2022-12-20T10:53:56.374Z,4.30
2022-12-20T10:58:04.410Z,4.70
2022-12-20T11:02:26.336Z,4.70
2022-12-20T11:06:41.336Z,4.90
2022-12-20T11:10:45.302Z,4.93
2022-12-20T11:14:49.262Z,4.67
2022-12-20T11:19:04.301Z,4.10
2022-12-20T11:23:23.816Z,4.63
2022-12-20T11:27:34.257Z,4.37
2022-12-20T11:31:49.569Z,4.80
2022-12-20T11:36:01.487Z,4.93
2022-12-20T11:40:17.376Z,4.63
2022-12-20T11:44:30.343Z,4.83
2022-12-20T11:48:50.134Z,4.23
2022-12-20T11:52:59.684Z,5.07
2022-12-20T11:57:10.940Z,4.70
2022-12-20T12:01:17.965Z,4.63
2022-12-20T12:05:25.329Z,4.30
2022-12-20T12:09:36.346Z,4.70
2022-12-20T12:13:41.558Z,5.33
2022-12-20T12:17:49.507Z,4.87
2022-12-20T12:22:01.577Z,7.80
2022-12-20T12:26:11.789Z,5.47
2022-12-20T12:30:15.971Z,5.50
2022-12-20T12:34:31.408Z,6.00
2022-12-20T12:39:02.600Z,5.17
2022-12-20T12:43:24.840Z,5.50
2022-12-20T12:47:36.359Z,5.83
2022-12-20T12:51:42.309Z,6.37
2022-12-20T12:55:47.044Z,6.10
2022-12-20T12:59:52.538Z,5.80
2022-12-20T13:04:11.615Z,5.47
2022-12-20T13:08:18.652Z,6.90
2022-12-20T13:12:56.261Z,7.20
2022-12-20T13:21:36.550Z,6.60
2022-12-20T13:25:41.137Z,6.03
2022-12-20T13:29:58.957Z,7.10
2022-12-20T13:34:04.053Z,6.87
2022-12-20T13:38:46.979Z,6.80
2022-12-20T13:42:54.927Z,6.67
2022-12-20T13:47:03.414Z,7.87
2022-12-20T13:51:08.064Z,7.43
2022-12-20T13:55:27.815Z,7.77
2022-12-20T13:59:33.332Z,7.20
2022-12-20T14:03:42.691Z,7.27
2022-12-20T14:07:49.026Z,7.10
2022-12-20T14:11:53.218Z,6.80
2022-12-20T14:15:57.421Z,7.70
2022-12-20T14:20:08.162Z,7.23
2022-12-20T14:24:16.754Z,7.70
2022-12-20T14:28:31.978Z,8.80
2022-12-20T14:32:34.760Z,7.27
2022-12-20T14:36:38.417Z,8.40
2022-12-20T14:40:42.916Z,7.70
2022-12-20T14:44:48.308Z,8.50
2022-12-20T14:49:09.155Z,8.90
2022-12-20T14:53:20.250Z,8.83
2022-12-20T14:57:25.738Z,9.37
2022-12-20T15:01:37.221Z,8.53
2022-12-20T15:05:47.326Z,9.07
2022-12-20T15:09:50.167Z,9.53
2022-12-20T15:13:55.577Z,9.53
2022-12-20T15:17:59.955Z,9.23
2022-12-20T15:22:03.105Z,7.77
2022-12-20T15:26:06.169Z,8.83
2022-12-20T15:30:13.866Z,8.57
2022-12-20T15:34:23.439Z,8.50
2022-12-20T15:38:55.220Z,8.27
2022-12-20T15:42:50.594Z,9.50
2022-12-20T15:46:53.822Z,9.03
2022-12-20T15:50:59.341Z,9.40
2022-12-20T15:55:02.229Z,7.50
2022-12-20T15:59:24.520Z,10.13
2022-12-20T16:03:32.685Z,6.10
2022-12-20T16:07:37.062Z,7.37
2022-12-20T16:11:40.602Z,13.90
2022-12-20T16:15:44.076Z,13.10
2022-12-20T16:19:47.259Z,10.40
2022-12-20T16:23:51.991Z,7.33
2022-12-20T16:27:54.831Z,7.73
2022-12-20T16:31:57.787Z,8.57
2022-12-20T16:36:00.642Z,7.60
2022-12-20T16:40:05.435Z,7.70
2022-12-20T16:44:13.655Z,8.30
2022-12-20T16:48:16.423Z,7.67
2022-12-20T16:52:19.699Z,8.80
2022-12-20T16:56:24.508Z,9.87
2022-12-20T17:00:27.986Z,10.13
2022-12-20T17:04:30.863Z,9.33
2022-12-20T17:12:56.171Z,9.97
2022-12-20T17:16:59.829Z,9.43
2022-12-20T17:21:04.433Z,8.80
2022-12-20T17:25:07.584Z,12.37
2022-12-20T17:29:12.035Z,14.67
2022-12-20T17:33:16.349Z,13.40
2022-12-20T17:37:19.353Z,14.30
2022-12-20T17:41:25.205Z,10.80
2022-12-20T17:45:32.403Z,10.87
2022-12-20T17:49:35.278Z,10.10
2022-12-20T17:53:38.026Z,12.50
2022-12-20T17:57:40.838Z,11.80
2022-12-20T18:01:45.861Z,11.40
2022-12-20T18:05:48.800Z,10.43
2022-12-20T18:09:51.859Z,12.23
2022-12-20T18:13:58.401Z,12.00
2022-12-20T18:18:02.604Z,14.90
2022-12-20T18:22:06.465Z,15.47
2022-12-20T18:26:12.490Z,12.63
2022-12-20T18:30:15.589Z,12.33
2022-12-20T18:34:19.753Z,14.57
2022-12-20T18:38:23.395Z,16.13
2022-12-20T18:42:26.192Z,15.30
2022-12-20T18:46:42.695Z,17.34
2022-12-20T18:50:46.895Z,16.57
2022-12-20T18:54:49.753Z,16.77
2022-12-20T18:58:53.504Z,17.50
2022-12-20T19:02:59.303Z,17.43
2022-12-20T19:07:03.555Z,18.43
2022-12-20T19:11:08.661Z,19.23
2022-12-20T19:15:11.800Z,19.60
2022-12-20T19:19:14.668Z,24.30
2022-12-20T19:23:20.588Z,21.83
2022-12-20T19:27:23.608Z,22.63
2022-12-20T19:31:28.810Z,20.53
2022-12-20T19:35:54.856Z,19.30
2022-12-20T19:39:55.883Z,18.03
2022-12-20T19:43:59.127Z,19.63
2022-12-20T19:48:01.943Z,21.67
2022-12-20T19:52:05.669Z,19.27
2022-12-20T19:56:10.904Z,20.07
2022-12-20T20:00:14.931Z,16.33
2022-12-20T20:04:17.901Z,16.97
2022-12-20T20:08:20.681Z,27.50
2022-12-20T20:12:24.874Z,22.27
2022-12-20T20:16:27.708Z,17.17
2022-12-20T20:20:30.489Z,17.23
2022-12-20T20:24:33.341Z,15.67
2022-12-20T20:28:44.363Z,14.53
2022-12-20T20:32:48.259Z,25.40
2022-12-20T20:36:51.079Z,45.87
2022-12-20T20:40:54.191Z,18.23
2022-12-20T20:44:58.431Z,19.10
2022-12-20T20:49:05.834Z,16.38
2022-12-20T20:53:08.692Z,16.00
2022-12-20T20:57:11.458Z,16.30
2022-12-20T21:01:15.826Z,16.23
2022-12-20T21:09:41.798Z,16.20
2022-12-20T21:13:44.647Z,14.77
2022-12-20T21:17:48.810Z,19.27
2022-12-20T21:21:51.636Z,17.10
2022-12-20T21:25:57.375Z,16.80
2022-12-20T21:30:00.191Z,15.90
2022-12-20T21:34:04.452Z,17.80
2022-12-20T21:38:07.216Z,17.83
2022-12-20T21:42:10.383Z,16.50
2022-12-20T21:46:13.447Z,18.37
2022-12-20T21:50:17.821Z,19.57
2022-12-20T21:54:20.708Z,16.87
2022-12-20T21:58:23.845Z,19.23
2022-12-20T22:02:26.730Z,19.03
2022-12-20T22:06:31.552Z,18.53
2022-12-20T22:10:34.518Z,17.20
2022-12-20T22:14:37.308Z,16.67
2022-12-20T22:18:41.343Z,21.10
2022-12-20T22:22:45.488Z,17.47
2022-12-20T22:26:48.245Z,18.57
2022-12-20T22:30:52.188Z,20.43
2022-12-20T22:34:55.032Z,19.90
2022-12-20T22:38:59.568Z,18.70
2022-12-20T22:43:02.364Z,21.13
2022-12-20T22:47:06.024Z,21.17
2022-12-20T22:51:10.710Z,20.93
2022-12-20T22:55:14.917Z,19.37
2022-12-20T22:59:17.724Z,20.70
2022-12-20T23:03:20.672Z,19.00
2022-12-20T23:07:23.603Z,20.20
2022-12-20T23:11:46.729Z,16.60
2022-12-20T23:15:49.773Z,19.10
2022-12-20T23:20:24.425Z,14.73
2022-12-20T23:24:27.293Z,16.87
2022-12-20T23:28:31.510Z,18.67
2022-12-20T23:32:34.323Z,16.93
2022-12-20T23:36:37.846Z,18.57
2022-12-20T23:40:41.391Z,17.03
2022-12-20T23:44:45.636Z,16.43
2022-12-20T23:48:48.628Z,17.13
2022-12-20T23:52:51.387Z,18.30
2022-12-20T23:56:54.181Z,20.63
